Terminal Aerodrome Forecast
Issued by NWS

Home | Current Version | Previous Version | Text Only | Print | Product List | Glossary Off
Versions: 1 2 3 4 5 6 7 8 9 10 11 12 13 14 15 16

622
FTUS43 KIWX 041720
TAFSBN
TAF
KSBN 041720Z 0418/0518 27010KT P6SM -SHSN OVC025
     FM042000 26007KT P6SM SCT030
     FM050200 21005KT P6SM SCT050 BKN080
     FM051400 27008KT P6SM OVC035=

USA.gov is the U.S. government's official web portal to all federal, state and local government web resources and services.